sensor_id;sensor_type;location;lat;lon;timestamp;pressure;altitude;pressure_sealevel;temperature;humidity
9139;BME280;4604;48.616;9.548;2024-03-08T00:00:19;96713.03;;;2.97;97.17
9139;BME280;4604;48.616;9.548;2024-03-08T00:02:46;96739.25;;;3.09;97.29
9139;BME280;4604;48.616;9.548;2024-03-08T00:05:16;96772.78;;;3.42;97.19
9139;BME280;4604;48.616;9.548;2024-03-08T00:07:48;96731.94;;;3.28;95.79
9139;BME280;4604;48.616;9.548;2024-03-08T00:10:37;96754.22;;;3.47;95.20
9139;BME280;4604;48.616;9.548;2024-03-08T00:13:04;96710.63;;;3.21;94.35
9139;BME280;4604;48.616;9.548;2024-03-08T00:15:50;96695.44;;;3.01;95.29
9139;BME280;4604;48.616;9.548;2024-03-08T00:18:22;96735.63;;;3.11;96.42
9139;BME280;4604;48.616;9.548;2024-03-08T00:21:07;96718.34;;;2.96;96.79
9139;BME280;4604;48.616;9.548;2024-03-08T00:24:00;96724.31;;;2.98;96.95
9139;BME280;4604;48.616;9.548;2024-03-08T00:26:34;96709.63;;;2.83;97.67
9139;BME280;4604;48.616;9.548;2024-03-08T00:29:08;96698.56;;;2.79;98.11
9139;BME280;4604;48.616;9.548;2024-03-08T00:31:37;96768.34;;;3.30;97.76
9139;BME280;4604;48.616;9.548;2024-03-08T00:34:24;96757.38;;;3.25;98.23
9139;BME280;4604;48.616;9.548;2024-03-08T00:36:57;96687.47;;;2.90;97.94
9139;BME280;4604;48.616;9.548;2024-03-08T00:39:32;96731.09;;;3.28;96.54
9139;BME280;4604;48.616;9.548;2024-03-08T00:42:06;96667.06;;;2.69;97.48
9139;BME280;4604;48.616;9.548;2024-03-08T00:44:36;96717.63;;;2.94;98.26
9139;BME280;4604;48.616;9.548;2024-03-08T00:47:19;96749.34;;;3.00;99.93
9139;BME280;4604;48.616;9.548;2024-03-08T00:49:52;96747.66;;;2.99;99.93
9139;BME280;4604;48.616;9.548;2024-03-08T00:52:42;96748.06;;;2.93;100.00
9139;BME280;4604;48.616;9.548;2024-03-08T00:55:25;96707.50;;;2.75;100.00
9139;BME280;4604;48.616;9.548;2024-03-08T00:58:17;96706.19;;;2.82;99.98
9139;BME280;4604;48.616;9.548;2024-03-08T01:00:56;96649.97;;;2.51;98.74
9139;BME280;4604;48.616;9.548;2024-03-08T01:03:34;96668.56;;;2.59;99.25
9139;BME280;4604;48.616;9.548;2024-03-08T01:06:14;96699.53;;;2.64;99.96
9139;BME280;4604;48.616;9.548;2024-03-08T01:08:40;96690.59;;;2.53;99.95
9139;BME280;4604;48.616;9.548;2024-03-08T01:11:07;96722.53;;;2.98;98.94
9139;BME280;4604;48.616;9.548;2024-03-08T01:13:37;96644.75;;;2.51;98.36
9139;BME280;4604;48.616;9.548;2024-03-08T01:16:05;96721.41;;;3.03;97.60
9139;BME280;4604;48.616;9.548;2024-03-08T01:18:33;96722.56;;;2.84;98.81
9139;BME280;4604;48.616;9.548;2024-03-08T01:21:02;96717.75;;;2.78;99.12
9139;BME280;4604;48.616;9.548;2024-03-08T01:23:32;96689.81;;;2.80;98.57
9139;BME280;4604;48.616;9.548;2024-03-08T01:25:59;96697.75;;;2.78;98.80
9139;BME280;4604;48.616;9.548;2024-03-08T01:28:27;96698.13;;;2.99;97.49
9139;BME280;4604;48.616;9.548;2024-03-08T01:30:54;96686.28;;;2.81;97.33
9139;BME280;4604;48.616;9.548;2024-03-08T01:33:22;96694.72;;;2.85;97.30
9139;BME280;4604;48.616;9.548;2024-03-08T01:35:51;96695.81;;;2.95;97.34
9139;BME280;4604;48.616;9.548;2024-03-08T01:38:18;96684.72;;;2.78;98.53
9139;BME280;4604;48.616;9.548;2024-03-08T01:40:46;96694.06;;;2.68;99.13
9139;BME280;4604;48.616;9.548;2024-03-08T01:43:19;96698.41;;;2.68;99.81
9139;BME280;4604;48.616;9.548;2024-03-08T01:45:46;96689.94;;;2.78;97.85
9139;BME280;4604;48.616;9.548;2024-03-08T01:48:13;96694.53;;;2.88;97.43
9139;BME280;4604;48.616;9.548;2024-03-08T01:50:41;96682.69;;;2.96;97.16
9139;BME280;4604;48.616;9.548;2024-03-08T01:53:10;96680.41;;;2.77;97.57
9139;BME280;4604;48.616;9.548;2024-03-08T01:55:41;96628.25;;;2.38;99.01
9139;BME280;4604;48.616;9.548;2024-03-08T01:58:12;96659.06;;;2.58;99.65
9139;BME280;4604;48.616;9.548;2024-03-08T02:00:45;96641.34;;;2.36;99.77
9139;BME280;4604;48.616;9.548;2024-03-08T02:03:15;96654.34;;;2.50;99.43
9139;BME280;4604;48.616;9.548;2024-03-08T02:05:42;96650.59;;;2.69;96.69
9139;BME280;4604;48.616;9.548;2024-03-08T02:08:10;96650.03;;;2.64;97.43
9139;BME280;4604;48.616;9.548;2024-03-08T02:10:39;96638.31;;;2.71;97.67
9139;BME280;4604;48.616;9.548;2024-03-08T02:13:07;96649.59;;;2.57;98.13
9139;BME280;4604;48.616;9.548;2024-03-08T02:15:58;96633.72;;;2.47;99.41
9139;BME280;4604;48.616;9.548;2024-03-08T02:18:28;96641.88;;;2.41;99.31
9139;BME280;4604;48.616;9.548;2024-03-08T02:20:57;96644.66;;;2.52;98.80
9139;BME280;4604;48.616;9.548;2024-03-08T02:23:25;96648.75;;;2.56;98.66
9139;BME280;4604;48.616;9.548;2024-03-08T02:25:52;96638.84;;;2.49;99.17
9139;BME280;4604;48.616;9.548;2024-03-08T02:28:20;96630.06;;;2.50;99.69
9139;BME280;4604;48.616;9.548;2024-03-08T02:30:50;96631.59;;;2.40;100.00
9139;BME280;4604;48.616;9.548;2024-03-08T02:33:25;96608.38;;;2.22;100.00
9139;BME280;4604;48.616;9.548;2024-03-08T02:35:56;96610.34;;;2.46;99.66
9139;BME280;4604;48.616;9.548;2024-03-08T02:38:25;96596.94;;;2.25;100.00
9139;BME280;4604;48.616;9.548;2024-03-08T02:40:53;96557.38;;;1.91;100.00
9139;BME280;4604;48.616;9.548;2024-03-08T02:43:23;96557.88;;;1.83;100.00
9139;BME280;4604;48.616;9.548;2024-03-08T02:45:50;96550.22;;;1.95;100.00
9139;BME280;4604;48.616;9.548;2024-03-08T02:48:21;96604.09;;;2.21;100.00
9139;BME280;4604;48.616;9.548;2024-03-08T02:50:52;96543.91;;;1.84;100.00
9139;BME280;4604;48.616;9.548;2024-03-08T02:53:26;96608.38;;;2.22;100.00
9139;BME280;4604;48.616;9.548;2024-03-08T02:55:58;96552.66;;;1.83;100.00
9139;BME280;4604;48.616;9.548;2024-03-08T02:58:30;96612.28;;;2.29;100.00
9139;BME280;4604;48.616;9.548;2024-03-08T03:01:10;96543.00;;;1.85;100.00
9139;BME280;4604;48.616;9.548;2024-03-08T03:03:53;96606.31;;;2.27;100.00
9139;BME280;4604;48.616;9.548;2024-03-08T03:06:42;96601.38;;;2.64;98.63
9139;BME280;4604;48.616;9.548;2024-03-08T03:09:19;96525.41;;;1.89;100.00
9139;BME280;4604;48.616;9.548;2024-03-08T03:11:49;96520.44;;;1.71;100.00
9139;BME280;4604;48.616;9.548;2024-03-08T03:14:21;96519.50;;;1.73;100.00
9139;BME280;4604;48.616;9.548;2024-03-08T03:16:47;96596.81;;;2.26;100.00
9139;BME280;4604;48.616;9.548;2024-03-08T03:19:17;96516.88;;;1.87;100.00
9139;BME280;4604;48.616;9.548;2024-03-08T03:21:44;96595.78;;;2.29;100.00
9139;BME280;4604;48.616;9.548;2024-03-08T03:27:39;96593.47;;;2.24;100.00
9139;BME280;4604;48.616;9.548;2024-03-08T03:30:20;96588.59;;;2.20;100.00
9139;BME280;4604;48.616;9.548;2024-03-08T03:33:11;96518.72;;;1.85;100.00
9139;BME280;4604;48.616;9.548;2024-03-08T03:35:53;96580.94;;;2.17;100.00
9139;BME280;4604;48.616;9.548;2024-03-08T03:39:41;96510.91;;;1.85;100.00
9139;BME280;4604;48.616;9.548;2024-03-08T03:42:28;96548.88;;;2.16;100.00
9139;BME280;4604;48.616;9.548;2024-03-08T03:45:26;96563.19;;;2.23;100.00
9139;BME280;4604;48.616;9.548;2024-03-08T03:48:34;96570.50;;;2.31;100.00
9139;BME280;4604;48.616;9.548;2024-03-08T03:51:22;96562.75;;;2.02;100.00
9139;BME280;4604;48.616;9.548;2024-03-08T03:54:12;96567.75;;;2.20;100.00
9139;BME280;4604;48.616;9.548;2024-03-08T03:56:44;96494.22;;;1.75;100.00
9139;BME280;4604;48.616;9.548;2024-03-08T03:59:27;96505.69;;;1.99;100.00
9139;BME280;4604;48.616;9.548;2024-03-08T04:02:18;96500.63;;;1.83;100.00
9139;BME280;4604;48.616;9.548;2024-03-08T04:04:55;96529.53;;;2.20;100.00
9139;BME280;4604;48.616;9.548;2024-03-08T04:07:42;96565.75;;;2.38;100.00
9139;BME280;4604;48.616;9.548;2024-03-08T04:10:19;96501.41;;;1.71;100.00
9139;BME280;4604;48.616;9.548;2024-03-08T04:12:52;96559.03;;;2.06;100.00
9139;BME280;4604;48.616;9.548;2024-03-08T04:15:20;96506.69;;;1.69;100.00
9139;BME280;4604;48.616;9.548;2024-03-08T04:17:47;96520.22;;;1.89;100.00
9139;BME280;4604;48.616;9.548;2024-03-08T04:20:13;96523.53;;;2.05;100.00
9139;BME280;4604;48.616;9.548;2024-03-08T04:22:43;96546.28;;;2.16;100.00
9139;BME280;4604;48.616;9.548;2024-03-08T04:25:09;96550.69;;;2.01;100.00
9139;BME280;4604;48.616;9.548;2024-03-08T04:27:36;96547.03;;;2.04;100.00
9139;BME280;4604;48.616;9.548;2024-03-08T04:30:03;96543.63;;;2.03;100.00
9139;BME280;4604;48.616;9.548;2024-03-08T04:32:34;96545.19;;;2.06;100.00
9139;BME280;4604;48.616;9.548;2024-03-08T04:35:01;96540.72;;;2.08;100.00
9139;BME280;4604;48.616;9.548;2024-03-08T04:37:28;96529.84;;;2.01;100.00
9139;BME280;4604;48.616;9.548;2024-03-08T04:39:55;96539.16;;;2.05;100.00
9139;BME280;4604;48.616;9.548;2024-03-08T04:42:22;96541.56;;;2.08;100.00
9139;BME280;4604;48.616;9.548;2024-03-08T04:44:50;96541.53;;;2.23;100.00
9139;BME280;4604;48.616;9.548;2024-03-08T04:47:18;96539.91;;;2.07;100.00
9139;BME280;4604;48.616;9.548;2024-03-08T04:49:47;96530.03;;;2.12;100.00
9139;BME280;4604;48.616;9.548;2024-03-08T04:52:13;96539.50;;;2.13;100.00
9139;BME280;4604;48.616;9.548;2024-03-08T04:54:40;96529.66;;;2.04;100.00
9139;BME280;4604;48.616;9.548;2024-03-08T04:57:06;96533.81;;;2.07;100.00
9139;BME280;4604;48.616;9.548;2024-03-08T04:59:36;96530.59;;;2.03;100.00
9139;BME280;4604;48.616;9.548;2024-03-08T05:02:03;96505.59;;;2.01;100.00
9139;BME280;4604;48.616;9.548;2024-03-08T05:04:49;96454.75;;;1.68;100.00
9139;BME280;4604;48.616;9.548;2024-03-08T05:07:26;96467.19;;;1.77;100.00
9139;BME280;4604;48.616;9.548;2024-03-08T05:09:58;96521.59;;;2.22;100.00
9139;BME280;4604;48.616;9.548;2024-03-08T05:12:42;96524.06;;;2.10;100.00
9139;BME280;4604;48.616;9.548;2024-03-08T05:15:09;96518.22;;;2.07;100.00
9139;BME280;4604;48.616;9.548;2024-03-08T05:17:36;96511.97;;;2.09;100.00
9139;BME280;4604;48.616;9.548;2024-03-08T05:20:06;96521.75;;;2.06;100.00
9139;BME280;4604;48.616;9.548;2024-03-08T05:22:33;96506.81;;;1.95;100.00
9139;BME280;4604;48.616;9.548;2024-03-08T05:25:01;96527.56;;;2.24;100.00
9139;BME280;4604;48.616;9.548;2024-03-08T05:27:27;96517.44;;;2.19;100.00
9139;BME280;4604;48.616;9.548;2024-03-08T05:29:56;96491.66;;;2.02;100.00
9139;BME280;4604;48.616;9.548;2024-03-08T05:32:22;96510.59;;;2.04;100.00
9139;BME280;4604;48.616;9.548;2024-03-08T05:34:53;96445.38;;;1.65;100.00
9139;BME280;4604;48.616;9.548;2024-03-08T05:37:41;96492.94;;;2.09;100.00
9139;BME280;4604;48.616;9.548;2024-03-08T05:40:13;96487.50;;;1.85;100.00
9139;BME280;4604;48.616;9.548;2024-03-08T05:43:11;96460.16;;;1.65;100.00
9139;BME280;4604;48.616;9.548;2024-03-08T05:45:42;96485.31;;;1.79;100.00
9139;BME280;4604;48.616;9.548;2024-03-08T05:48:08;96516.75;;;2.03;100.00
9139;BME280;4604;48.616;9.548;2024-03-08T05:50:35;96516.50;;;1.93;100.00
9139;BME280;4604;48.616;9.548;2024-03-08T05:53:03;96510.31;;;2.08;100.00
9139;BME280;4604;48.616;9.548;2024-03-08T05:55:31;96500.88;;;1.93;100.00
9139;BME280;4604;48.616;9.548;2024-03-08T05:58:00;96513.63;;;1.98;100.00
9139;BME280;4604;48.616;9.548;2024-03-08T06:00:27;96507.94;;;1.91;100.00
9139;BME280;4604;48.616;9.548;2024-03-08T06:02:54;96515.56;;;1.94;100.00
9139;BME280;4604;48.616;9.548;2024-03-08T06:05:21;96510.34;;;1.94;100.00
9139;BME280;4604;48.616;9.548;2024-03-08T06:07:50;96502.50;;;2.08;100.00
9139;BME280;4604;48.616;9.548;2024-03-08T06:10:20;96514.41;;;2.12;100.00
9139;BME280;4604;48.616;9.548;2024-03-08T06:12:46;96509.81;;;2.16;100.00
9139;BME280;4604;48.616;9.548;2024-03-08T06:15:13;96513.47;;;2.13;100.00
9139;BME280;4604;48.616;9.548;2024-03-08T06:17:41;96510.03;;;2.13;100.00
9139;BME280;4604;48.616;9.548;2024-03-08T06:20:08;96499.34;;;2.18;100.00
9139;BME280;4604;48.616;9.548;2024-03-08T06:22:38;96515.19;;;2.27;100.00
9139;BME280;4604;48.616;9.548;2024-03-08T06:25:06;96510.00;;;2.27;100.00
9139;BME280;4604;48.616;9.548;2024-03-08T06:27:34;96520.78;;;2.21;100.00
9139;BME280;4604;48.616;9.548;2024-03-08T06:30:01;96517.34;;;2.21;100.00
9139;BME280;4604;48.616;9.548;2024-03-08T06:32:30;96518.19;;;2.21;100.00
9139;BME280;4604;48.616;9.548;2024-03-08T06:34:58;96520.78;;;2.21;100.00
9139;BME280;4604;48.616;9.548;2024-03-08T06:37:24;96523.28;;;2.23;100.00
9139;BME280;4604;48.616;9.548;2024-03-08T06:39:52;96516.41;;;2.22;100.00
9139;BME280;4604;48.616;9.548;2024-03-08T06:42:22;96518.19;;;2.21;100.00
9139;BME280;4604;48.616;9.548;2024-03-08T06:45:07;96484.28;;;2.08;100.00
9139;BME280;4604;48.616;9.548;2024-03-08T06:47:36;96477.09;;;2.12;100.00
9139;BME280;4604;48.616;9.548;2024-03-08T06:50:07;96521.41;;;2.52;100.00
9139;BME280;4604;48.616;9.548;2024-03-08T06:52:34;96512.22;;;2.46;100.00
9139;BME280;4604;48.616;9.548;2024-03-08T06:55:01;96516.47;;;2.74;100.00
9139;BME280;4604;48.616;9.548;2024-03-08T06:57:30;96522.88;;;2.56;100.00
9139;BME280;4604;48.616;9.548;2024-03-08T06:59:58;96521.13;;;2.56;100.00
9139;BME280;4604;48.616;9.548;2024-03-08T07:02:26;96515.25;;;2.53;100.00
9139;BME280;4604;48.616;9.548;2024-03-08T07:04:52;96507.97;;;2.58;100.00
9139;BME280;4604;48.616;9.548;2024-03-08T07:07:19;96511.69;;;2.68;100.00
9139;BME280;4604;48.616;9.548;2024-03-08T07:09:47;96515.66;;;2.87;100.00
9139;BME280;4604;48.616;9.548;2024-03-08T07:12:17;96516.47;;;2.74;100.00
9139;BME280;4604;48.616;9.548;2024-03-08T07:14:46;96499.88;;;2.75;100.00
9139;BME280;4604;48.616;9.548;2024-03-08T07:17:20;96500.31;;;2.82;100.00
9139;BME280;4604;48.616;9.548;2024-03-08T07:20:00;96485.53;;;2.83;100.00
9139;BME280;4604;48.616;9.548;2024-03-08T07:22:54;96422.88;;;2.59;100.00
9139;BME280;4604;48.616;9.548;2024-03-08T07:25:35;96472.72;;;2.92;100.00
9139;BME280;4604;48.616;9.548;2024-03-08T07:28:05;96460.31;;;2.96;100.00
9139;BME280;4604;48.616;9.548;2024-03-08T07:30:33;96450.00;;;2.82;100.00
9139;BME280;4604;48.616;9.548;2024-03-08T07:33:17;96426.63;;;2.80;100.00
9139;BME280;4604;48.616;9.548;2024-03-08T07:36:18;96417.59;;;2.86;98.37
9139;BME280;4604;48.616;9.548;2024-03-08T07:38:59;96474.19;;;3.22;98.61
9139;BME280;4604;48.616;9.548;2024-03-08T07:41:55;96491.59;;;3.34;97.07
9139;BME280;4604;48.616;9.548;2024-03-08T07:44:37;96460.53;;;3.06;96.69
9139;BME280;4604;48.616;9.548;2024-03-08T07:47:08;96471.84;;;3.56;95.10
9139;BME280;4604;48.616;9.548;2024-03-08T07:49:44;96479.28;;;3.36;96.27
9139;BME280;4604;48.616;9.548;2024-03-08T07:52:27;96488.78;;;3.37;98.39
9139;BME280;4604;48.616;9.548;2024-03-08T07:55:05;96467.41;;;3.32;98.04
9139;BME280;4604;48.616;9.548;2024-03-08T07:57:35;96412.47;;;3.10;96.68
9139;BME280;4604;48.616;9.548;2024-03-08T08:00:13;96435.50;;;3.16;98.22
9139;BME280;4604;48.616;9.548;2024-03-08T08:02:53;96491.38;;;3.50;98.25
9139;BME280;4604;48.616;9.548;2024-03-08T08:05:30;96457.19;;;3.29;98.26
9139;BME280;4604;48.616;9.548;2024-03-08T08:08:04;96460.38;;;3.46;97.34
9139;BME280;4604;48.616;9.548;2024-03-08T08:10:35;96459.09;;;3.64;96.03
9139;BME280;4604;48.616;9.548;2024-03-08T08:13:07;96477.41;;;3.88;94.16
9139;BME280;4604;48.616;9.548;2024-03-08T08:15:41;96460.47;;;3.57;95.11
9139;BME280;4604;48.616;9.548;2024-03-08T08:18:10;96463.56;;;3.75;94.38
9139;BME280;4604;48.616;9.548;2024-03-08T08:20:42;96457.09;;;3.80;94.67
9139;BME280;4604;48.616;9.548;2024-03-08T08:23:41;96387.94;;;3.25;93.99
9139;BME280;4604;48.616;9.548;2024-03-08T08:26:27;96401.03;;;3.36;94.80
9139;BME280;4604;48.616;9.548;2024-03-08T08:28:55;96451.13;;;3.78;94.57
9139;BME280;4604;48.616;9.548;2024-03-08T08:31:32;96443.00;;;3.70;94.23
9139;BME280;4604;48.616;9.548;2024-03-08T08:34:18;96464.09;;;4.04;93.52
9139;BME280;4604;48.616;9.548;2024-03-08T08:37:03;96377.53;;;3.49;93.01
9139;BME280;4604;48.616;9.548;2024-03-08T08:39:41;96461.88;;;4.11;93.65
9139;BME280;4604;48.616;9.548;2024-03-08T08:42:22;96467.38;;;4.19;93.48
9139;BME280;4604;48.616;9.548;2024-03-08T08:44:54;96395.28;;;3.81;90.95
9139;BME280;4604;48.616;9.548;2024-03-08T08:47:25;96390.94;;;3.93;91.18
9139;BME280;4604;48.616;9.548;2024-03-08T08:49:56;96446.41;;;4.32;90.92
9139;BME280;4604;48.616;9.548;2024-03-08T08:52:32;96449.31;;;4.40;91.07
9139;BME280;4604;48.616;9.548;2024-03-08T08:55:10;96384.84;;;4.05;91.06
9139;BME280;4604;48.616;9.548;2024-03-08T08:57:41;96374.88;;;4.10;91.59
9139;BME280;4604;48.616;9.548;2024-03-08T09:00:13;96457.94;;;4.64;90.29
9139;BME280;4604;48.616;9.548;2024-03-08T09:02:58;96404.47;;;4.57;88.27
9139;BME280;4604;48.616;9.548;2024-03-08T09:05:28;96382.22;;;4.40;86.79
9139;BME280;4604;48.616;9.548;2024-03-08T09:08:09;96454.31;;;4.78;87.96
9139;BME280;4604;48.616;9.548;2024-03-08T09:10:40;96459.69;;;4.88;86.30
9139;BME280;4604;48.616;9.548;2024-03-08T09:13:08;96381.00;;;4.33;87.66
9139;BME280;4604;48.616;9.548;2024-03-08T09:15:44;96398.78;;;4.63;87.76
9139;BME280;4604;48.616;9.548;2024-03-08T09:18:17;96423.75;;;4.79;85.58
9139;BME280;4604;48.616;9.548;2024-03-08T09:20:44;96459.22;;;5.17;86.01
9139;BME280;4604;48.616;9.548;2024-03-08T09:23:32;96442.47;;;5.08;86.55
9139;BME280;4604;48.616;9.548;2024-03-08T09:26:07;96450.44;;;5.18;86.08
9139;BME280;4604;48.616;9.548;2024-03-08T09:28:37;96417.00;;;4.87;84.69
9139;BME280;4604;48.616;9.548;2024-03-08T09:31:09;96368.59;;;4.59;86.27
9139;BME280;4604;48.616;9.548;2024-03-08T09:33:48;96439.16;;;5.17;86.65
9139;BME280;4604;48.616;9.548;2024-03-08T09:36:23;96401.81;;;5.15;85.54
9139;BME280;4604;48.616;9.548;2024-03-08T09:38:50;96433.53;;;5.55;85.40
9139;BME280;4604;48.616;9.548;2024-03-08T09:41:21;96440.16;;;5.82;80.36
9139;BME280;4604;48.616;9.548;2024-03-08T09:43:48;96436.28;;;5.65;81.34
9139;BME280;4604;48.616;9.548;2024-03-08T09:46:15;96435.44;;;5.53;83.82
9139;BME280;4604;48.616;9.548;2024-03-08T09:48:42;96408.34;;;5.43;84.08
9139;BME280;4604;48.616;9.548;2024-03-08T09:51:09;96435.44;;;5.65;82.51
9139;BME280;4604;48.616;9.548;2024-03-08T09:53:39;96435.94;;;5.47;83.02
9139;BME280;4604;48.616;9.548;2024-03-08T09:56:06;96434.00;;;5.61;84.20
9139;BME280;4604;48.616;9.548;2024-03-08T09:58:34;96428.78;;;5.72;83.72
9139;BME280;4604;48.616;9.548;2024-03-08T10:01:19;96422.66;;;5.83;80.24
9139;BME280;4604;48.616;9.548;2024-03-08T10:03:47;96426.72;;;5.75;80.68
9139;BME280;4604;48.616;9.548;2024-03-08T10:06:27;96364.81;;;5.42;82.21
9139;BME280;4604;48.616;9.548;2024-03-08T10:11:34;96419.63;;;6.21;81.58
9139;BME280;4604;48.616;9.548;2024-03-08T10:14:10;96348.19;;;5.75;80.40
9139;BME280;4604;48.616;9.548;2024-03-08T10:16:38;96410.56;;;6.25;80.79
9139;BME280;4604;48.616;9.548;2024-03-08T10:19:10;96362.16;;;6.08;79.96
9139;BME280;4604;48.616;9.548;2024-03-08T10:21:47;96370.59;;;6.12;79.27
9139;BME280;4604;48.616;9.548;2024-03-08T10:24:17;96344.31;;;6.02;78.35
9139;BME280;4604;48.616;9.548;2024-03-08T10:26:55;96372.59;;;6.19;77.90
9139;BME280;4604;48.616;9.548;2024-03-08T10:29:37;96346.41;;;6.19;78.44
9139;BME280;4604;48.616;9.548;2024-03-08T10:32:22;96330.03;;;6.06;78.29
9139;BME280;4604;48.616;9.548;2024-03-08T10:34:56;96383.16;;;6.50;78.73
9139;BME280;4604;48.616;9.548;2024-03-08T10:37:36;96370.06;;;6.50;78.25
9139;BME280;4604;48.616;9.548;2024-03-08T10:40:16;96371.16;;;6.69;74.71
9139;BME280;4604;48.616;9.548;2024-03-08T10:42:59;96343.66;;;6.42;75.47
9139;BME280;4604;48.616;9.548;2024-03-08T10:45:38;96354.84;;;6.44;77.18
9139;BME280;4604;48.616;9.548;2024-03-08T10:48:31;96336.00;;;6.29;78.16
9139;BME280;4604;48.616;9.548;2024-03-08T10:51:13;96364.97;;;6.49;77.10
9139;BME280;4604;48.616;9.548;2024-03-08T10:53:57;96357.53;;;6.54;76.31
9139;BME280;4604;48.616;9.548;2024-03-08T10:56:24;96357.78;;;6.51;76.32
9139;BME280;4604;48.616;9.548;2024-03-08T10:58:55;96354.84;;;6.44;77.08
9139;BME280;4604;48.616;9.548;2024-03-08T11:01:26;96339.50;;;6.39;77.23
9139;BME280;4604;48.616;9.548;2024-03-08T11:03:56;96368.09;;;6.63;77.27
9139;BME280;4604;48.616;9.548;2024-03-08T11:06:41;96366.84;;;6.68;77.54
9139;BME280;4604;48.616;9.548;2024-03-08T11:09:29;96345.75;;;6.69;77.13
9139;BME280;4604;48.616;9.548;2024-03-08T11:12:20;96380.56;;;7.02;74.99
9139;BME280;4604;48.616;9.548;2024-03-08T11:14:48;96373.22;;;6.96;75.05
9139;BME280;4604;48.616;9.548;2024-03-08T11:17:20;96363.84;;;6.93;73.69
9139;BME280;4604;48.616;9.548;2024-03-08T11:19:49;96366.09;;;6.56;75.94
9139;BME280;4604;48.616;9.548;2024-03-08T11:22:27;96350.13;;;6.59;76.91
9139;BME280;4604;48.616;9.548;2024-03-08T11:24:58;96361.53;;;6.79;76.61
9139;BME280;4604;48.616;9.548;2024-03-08T11:27:29;96355.63;;;7.07;74.36
9139;BME280;4604;48.616;9.548;2024-03-08T11:30:00;96357.31;;;7.18;76.53
9139;BME280;4604;48.616;9.548;2024-03-08T11:32:37;96352.50;;;7.23;74.92
9139;BME280;4604;48.616;9.548;2024-03-08T11:35:08;96349.28;;;7.10;75.23
9139;BME280;4604;48.616;9.548;2024-03-08T11:37:44;96341.66;;;7.07;75.62
9139;BME280;4604;48.616;9.548;2024-03-08T11:40:12;96336.25;;;6.99;76.60
9139;BME280;4604;48.616;9.548;2024-03-08T11:42:44;96340.56;;;7.10;77.02
9139;BME280;4604;48.616;9.548;2024-03-08T11:45:13;96312.66;;;7.08;76.48
9139;BME280;4604;48.616;9.548;2024-03-08T11:47:45;96328.59;;;7.26;76.09
9139;BME280;4604;48.616;9.548;2024-03-08T11:50:14;96321.31;;;7.40;76.91
9139;BME280;4604;48.616;9.548;2024-03-08T11:52:42;96300.91;;;7.63;75.40
9139;BME280;4604;48.616;9.548;2024-03-08T11:55:11;96320.28;;;7.71;74.91
9139;BME280;4604;48.616;9.548;2024-03-08T11:57:46;96313.22;;;7.72;71.70
9139;BME280;4604;48.616;9.548;2024-03-08T12:00:30;96240.91;;;7.39;72.86
9139;BME280;4604;48.616;9.548;2024-03-08T12:03:34;96266.75;;;7.63;72.86
9139;BME280;4604;48.616;9.548;2024-03-08T12:06:13;96238.88;;;7.71;71.89
9139;BME280;4604;48.616;9.548;2024-03-08T12:08:56;96225.84;;;7.70;71.52
9139;BME280;4604;48.616;9.548;2024-03-08T12:11:32;96227.94;;;7.66;71.42
9139;BME280;4604;48.616;9.548;2024-03-08T12:14:28;96261.81;;;7.89;73.16
9139;BME280;4604;48.616;9.548;2024-03-08T12:17:34;96281.56;;;8.12;73.32
9139;BME280;4604;48.616;9.548;2024-03-08T12:20:25;96213.41;;;7.62;71.77
9139;BME280;4604;48.616;9.548;2024-03-08T12:23:38;96255.03;;;7.96;70.75
9139;BME280;4604;48.616;9.548;2024-03-08T12:26:17;96251.28;;;7.99;70.95
9139;BME280;4604;48.616;9.548;2024-03-08T12:28:49;96257.09;;;8.02;69.58
9139;BME280;4604;48.616;9.548;2024-03-08T12:31:35;96217.03;;;7.81;69.08
9139;BME280;4604;48.616;9.548;2024-03-08T12:34:08;96247.97;;;7.97;70.47
9139;BME280;4604;48.616;9.548;2024-03-08T12:36:38;96273.94;;;8.19;71.53
9139;BME280;4604;48.616;9.548;2024-03-08T12:39:10;96221.38;;;8.09;68.39
9139;BME280;4604;48.616;9.548;2024-03-08T12:41:43;96194.34;;;7.80;70.17
9139;BME280;4604;48.616;9.548;2024-03-08T12:44:10;96249.72;;;8.25;71.11
9139;BME280;4604;48.616;9.548;2024-03-08T12:46:40;96190.44;;;8.03;70.33
9139;BME280;4604;48.616;9.548;2024-03-08T12:49:12;96176.59;;;8.11;71.42
9139;BME280;4604;48.616;9.548;2024-03-08T12:51:45;96241.66;;;8.56;70.48
9139;BME280;4604;48.616;9.548;2024-03-08T12:54:28;96162.06;;;8.07;70.11
9139;BME280;4604;48.616;9.548;2024-03-08T12:57:04;96208.16;;;8.48;70.19
9139;BME280;4604;48.616;9.548;2024-03-08T12:59:41;96197.53;;;8.50;71.20
9139;BME280;4604;48.616;9.548;2024-03-08T13:02:15;96217.75;;;8.77;71.74
9139;BME280;4604;48.616;9.548;2024-03-08T13:04:44;96171.31;;;8.58;71.92
9139;BME280;4604;48.616;9.548;2024-03-08T13:07:31;96137.03;;;8.50;70.50
9139;BME280;4604;48.616;9.548;2024-03-08T13:10:02;96135.09;;;8.52;69.66
9139;BME280;4604;48.616;9.548;2024-03-08T13:12:35;96159.78;;;8.69;68.68
9139;BME280;4604;48.616;9.548;2024-03-08T13:15:07;96140.25;;;8.71;67.47
9139;BME280;4604;48.616;9.548;2024-03-08T13:17:39;96134.44;;;8.68;68.23
9139;BME280;4604;48.616;9.548;2024-03-08T13:20:08;96203.88;;;9.12;67.40
9139;BME280;4604;48.616;9.548;2024-03-08T13:22:47;96185.56;;;9.11;69.02
9139;BME280;4604;48.616;9.548;2024-03-08T13:25:38;96155.63;;;8.94;68.40
9139;BME280;4604;48.616;9.548;2024-03-08T13:28:54;96147.94;;;8.83;67.25
9139;BME280;4604;48.616;9.548;2024-03-08T13:31:58;96132.06;;;8.74;66.45
9139;BME280;4604;48.616;9.548;2024-03-08T13:34:46;96176.19;;;9.26;65.74
9139;BME280;4604;48.616;9.548;2024-03-08T13:37:21;96120.72;;;8.92;67.20
9139;BME280;4604;48.616;9.548;2024-03-08T13:39:59;96149.94;;;9.16;66.59
9139;BME280;4604;48.616;9.548;2024-03-08T13:42:41;96159.25;;;9.29;66.90
9139;BME280;4604;48.616;9.548;2024-03-08T13:45:28;96149.50;;;9.39;66.05
9139;BME280;4604;48.616;9.548;2024-03-08T13:48:10;96126.53;;;9.31;66.41
9139;BME280;4604;48.616;9.548;2024-03-08T13:51:22;96100.28;;;9.21;66.68
9139;BME280;4604;48.616;9.548;2024-03-08T13:54:04;96112.16;;;9.43;65.66
9139;BME280;4604;48.616;9.548;2024-03-08T13:56:36;96137.81;;;9.59;65.73
9139;BME280;4604;48.616;9.548;2024-03-08T13:59:03;96126.38;;;9.69;63.85
9139;BME280;4604;48.616;9.548;2024-03-08T14:01:30;96123.81;;;9.59;65.10
9139;BME280;4604;48.616;9.548;2024-03-08T14:03:57;96122.00;;;9.59;65.95
9139;BME280;4604;48.616;9.548;2024-03-08T14:06:26;96119.72;;;9.64;65.67
9139;BME280;4604;48.616;9.548;2024-03-08T14:08:55;96114.69;;;9.71;66.47
9139;BME280;4604;48.616;9.548;2024-03-08T14:11:23;96109.63;;;9.78;66.82
9139;BME280;4604;48.616;9.548;2024-03-08T14:13:51;96104.50;;;9.76;65.32
9139;BME280;4604;48.616;9.548;2024-03-08T14:16:19;96091.03;;;9.79;66.11